Portada
METAR-TAF:

METAR-TAF

Aeroports :

Blytheville Municipal Airport

Blytheville, Arkansas, Estats Units d'Amèrica

latitud: 35-56-20N, longitud: 089-49-57W, altitud: 78 m

Observació

L'informe es va fer fa 34 minuts, a les 11:53 UTC
Vent 8 kt del Sud/Sud-Oest
Temperatura 25°C
Humitat 69%
Pressió 1012 hPa
Visibilitat: 16.1 km
Escasses núvols a una alçada de 10000 ft

METAR: KHKA 221153Z AUTO 21008KT 10SM FEW100 25/19 A2987 RMK AO2 SLP111 7//// T02500189 10267 20244 53007

Hora: 07:27 (12:27 UTC)


TAF: manca

Observacions i pronòstics meteorològics de més de 4000 aeroports (METAR i TAF).

Les estacions disponibles són els punts grocs i vermells al mapa.

Posi el ratolí al punt desitjat per veure el nom de l'estació.

Feu clic per veure les observacions i els pronòstics meteorològics.

Per canviar el mapa: feu clic els botons verds amb una creu de color negre per apropar; al botó verd amb un guió per allunyar la imatge; o en les fletxes verdes per a mapes adjacents.


METAR-TAF: